Meleuz, Russia
Current Conditions -  °F | °C
As of 9:00 PM on Friday 24 Oct 2014 (Local Time) from UWOO Reporting Station
Scattered Clouds Scattered Clouds  
Wind Chill:   Ceiling: Unl
Heat Index: 16°   Visibility: 3mi
Dew Point: 10°   Wind: 11mph
Humidity: 79%   Direction: 290°WNW
Pressure: 30.12"   Gusts: NA
Location:  52.97°N, 55.92°E
Report Text: UWOO 241600Z 29005MPS P5000 SCT040 M09/M12 Q1020 26CLRD63 NOSIGRMK QFE754/1006
Loading
Personal Weather Stations






























Interactive Weather Map
Tropical Storm Tracking
New forecast layout! Learn more

10-Day Weather Forecast

Advertisements
Track Severe Weather on mobile